createdAt,value
2017-08-07T05:32:02.233Z,80.87
2017-08-07T05:32:27.699Z,81.54
2017-08-07T05:32:53.153Z,81.05
2017-08-07T05:33:18.607Z,80.96
2017-08-07T05:33:44.062Z,81.05
2017-08-07T05:34:09.529Z,81.05
2017-08-07T05:34:34.994Z,80.62
2017-08-07T05:35:00.463Z,80.9
2017-08-07T05:35:25.977Z,81.1
2017-08-07T05:35:51.437Z,81.29
2017-08-07T05:36:16.910Z,80.9
2017-08-07T05:36:42.466Z,80.71
2017-08-07T05:37:07.959Z,80.52
2017-08-07T05:37:33.409Z,80.81
2017-08-07T05:37:58.877Z,80.33
2017-08-07T05:38:24.338Z,79.85
2017-08-07T05:38:49.788Z,79.57
2017-08-07T05:39:15.263Z,78.89
2017-08-07T05:39:40.740Z,78.89
2017-08-07T05:40:06.209Z,78.61
2017-08-07T05:40:31.698Z,77.75
2017-08-07T05:40:57.173Z,77.84
2017-08-07T05:41:22.639Z,78.42
2017-08-07T05:41:48.117Z,78.36
2017-08-07T05:42:13.541Z,77.75
2017-08-07T05:42:39.057Z,77.65
2017-08-07T05:43:04.516Z,77.69
2017-08-07T05:43:29.951Z,77.4
2017-08-07T05:43:55.424Z,76.79
2017-08-07T05:44:20.893Z,77.11
2017-08-07T05:44:46.378Z,77.59
2017-08-07T05:45:11.881Z,77.59
2017-08-07T05:45:37.315Z,77.4
2017-08-07T05:46:02.785Z,76.82
2017-08-07T05:46:28.220Z,77.02
2017-08-07T05:46:53.720Z,76.82
2017-08-07T05:47:19.167Z,77.21
2017-08-07T05:47:44.663Z,77.31
2017-08-07T05:48:10.199Z,77.78
2017-08-07T05:48:35.694Z,77.4
2017-08-07T05:49:01.166Z,77.31
2017-08-07T05:49:26.593Z,76.73
2017-08-07T05:49:52.074Z,76.54
2017-08-07T05:50:17.523Z,76.54
2017-08-07T05:50:43.012Z,77.11
2017-08-07T05:51:08.523Z,77.69
2017-08-07T05:51:33.970Z,76.64
2017-08-07T05:51:59.462Z,76.92
2017-08-07T05:52:24.963Z,76.44
2017-08-07T05:52:50.403Z,77.31
2017-08-07T05:53:15.864Z,76.92
2017-08-07T05:53:41.343Z,77.02
2017-08-07T05:54:06.826Z,76.54
2017-08-07T05:54:32.257Z,76.35
2017-08-07T05:54:57.706Z,75.68
2017-08-07T05:55:23.172Z,75.58
2017-08-07T05:55:48.620Z,75.58
2017-08-07T05:56:14.096Z,75.58
2017-08-07T05:56:39.580Z,75.77
2017-08-07T05:57:05.058Z,75.68
2017-08-07T05:57:30.553Z,76.06
2017-08-07T05:57:56.029Z,76.15
2017-08-07T05:58:21.524Z,75.87
2017-08-07T05:58:46.972Z,75.68
2017-08-07T05:59:12.485Z,75.81
2017-08-07T05:59:37.970Z,76
2017-08-07T06:00:03.459Z,76.19
2017-08-07T06:00:28.914Z,75.96
2017-08-07T06:00:54.372Z,76.29
2017-08-07T06:01:19.882Z,75.71
2017-08-07T06:01:45.345Z,75.71
2017-08-07T06:02:10.833Z,76.1
2017-08-07T06:02:36.293Z,75.9
2017-08-07T06:03:01.795Z,75.81
2017-08-07T06:03:27.337Z,76
2017-08-07T06:03:52.778Z,76.39
2017-08-07T06:04:18.262Z,76.29
2017-08-07T06:04:43.733Z,76.29
2017-08-07T06:05:09.263Z,76.29
2017-08-07T06:05:34.677Z,75.62
2017-08-07T06:06:00.165Z,76.1
2017-08-07T06:06:25.633Z,75.81
2017-08-07T06:06:51.128Z,75.71
2017-08-07T06:07:16.609Z,75.9
2017-08-07T06:07:42.123Z,75.71
2017-08-07T06:08:07.590Z,75.65
2017-08-07T06:08:33.082Z,75.37
2017-08-07T06:08:58.575Z,75.37
2017-08-07T06:09:24.064Z,75.27
2017-08-07T06:09:49.518Z,74.51
2017-08-07T06:10:14.998Z,74.22
2017-08-07T06:10:40.450Z,74.41
2017-08-07T06:11:05.902Z,74.22
2017-08-07T06:11:31.390Z,74.41
2017-08-07T06:11:56.836Z,74.22
2017-08-07T06:12:22.283Z,74.31
2017-08-07T06:12:47.772Z,74.51
2017-08-07T06:13:13.233Z,74.31
2017-08-07T06:13:38.719Z,74.6
2017-08-07T06:14:04.252Z,74.31
2017-08-07T06:14:29.747Z,74.69
2017-08-07T06:14:55.212Z,74.31
2017-08-07T06:15:20.663Z,74.51
2017-08-07T06:15:46.131Z,74.12
2017-08-07T06:16:11.600Z,74.31
2017-08-07T06:16:37.088Z,74.41
2017-08-07T06:17:02.513Z,74.41
2017-08-07T06:17:27.993Z,74.26
2017-08-07T06:17:53.467Z,73.93
2017-08-07T06:18:18.959Z,74.02
2017-08-07T06:18:44.398Z,74.06
2017-08-07T06:19:09.855Z,73.83
2017-08-07T06:19:35.335Z,74.26
2017-08-07T06:20:00.829Z,74.06
2017-08-07T06:20:26.271Z,73.87
2017-08-07T06:20:51.698Z,73.77
2017-08-07T06:21:17.152Z,73.68
2017-08-07T06:21:42.651Z,73.97
2017-08-07T06:22:08.150Z,74.06
2017-08-07T06:22:33.696Z,74.06
2017-08-07T06:22:59.151Z,73.49
2017-08-07T06:23:24.603Z,73.97
2017-08-07T06:23:50.074Z,73.68
2017-08-07T06:24:15.592Z,73.1
2017-08-07T06:24:41.098Z,73.3
2017-08-07T06:25:06.524Z,73
2017-08-07T06:25:31.994Z,72.37
2017-08-07T06:25:57.483Z,72.37
2017-08-07T06:26:22.911Z,72.53
2017-08-07T06:26:48.391Z,72.43
2017-08-07T06:27:13.857Z,72.18
2017-08-07T06:27:39.320Z,72.33
2017-08-07T06:28:04.801Z,72.66
2017-08-07T06:28:30.267Z,72.37
2017-08-07T06:28:55.731Z,72.66
2017-08-07T06:29:21.206Z,72.37
2017-08-07T06:29:46.713Z,72.75
2017-08-07T06:30:12.226Z,72.37
2017-08-07T06:30:37.687Z,71.7
2017-08-07T06:31:03.123Z,71.98
2017-08-07T06:31:28.592Z,71.7
2017-08-07T06:31:54.049Z,71.7
2017-08-07T06:32:19.514Z,71.7
2017-08-07T06:32:45.000Z,71.7
2017-08-07T06:33:10.459Z,71.22
2017-08-07T06:33:35.884Z,71.61
2017-08-07T06:34:01.344Z,71.51
2017-08-07T06:34:26.897Z,71.31
2017-08-07T06:34:52.405Z,71.12
2017-08-07T06:35:17.885Z,71.51
2017-08-07T06:35:43.399Z,71.31
2017-08-07T06:36:08.836Z,71.12
2017-08-07T06:36:34.292Z,71.41
2017-08-07T06:36:59.742Z,71.41
2017-08-07T06:37:25.219Z,70.87
2017-08-07T06:37:50.689Z,70.87
2017-08-07T06:38:16.172Z,70.97
2017-08-07T06:38:41.717Z,71.16
2017-08-07T06:39:07.224Z,71.25
2017-08-07T06:39:32.695Z,71.06
2017-08-07T06:39:58.144Z,70.39
2017-08-07T06:40:23.634Z,70.78
2017-08-07T06:40:49.136Z,70.68
2017-08-07T06:41:14.608Z,70.49
2017-08-07T06:41:40.116Z,70.68
2017-08-07T06:42:05.589Z,70.29
2017-08-07T06:42:31.041Z,69.72
2017-08-07T06:42:56.520Z,69.72
2017-08-07T06:43:21.963Z,70.01
2017-08-07T06:43:47.452Z,70.01
2017-08-07T06:44:12.951Z,69.43
2017-08-07T06:44:38.403Z,69.05
2017-08-07T06:45:03.881Z,69.05
2017-08-07T06:45:29.335Z,69.24
2017-08-07T06:45:54.816Z,69.34
2017-08-07T06:46:20.288Z,69.14
2017-08-07T06:46:45.764Z,69.14
2017-08-07T06:47:11.257Z,69.24
2017-08-07T06:47:36.710Z,69.05
2017-08-07T06:48:02.172Z,69.43
2017-08-07T06:48:27.674Z,69.53
2017-08-07T06:48:53.145Z,69.24
2017-08-07T06:49:18.633Z,69.43
2017-08-07T06:49:44.087Z,69.4
2017-08-07T06:50:09.576Z,69.24
2017-08-07T06:50:35.038Z,69.68
2017-08-07T06:51:00.515Z,69.87
2017-08-07T06:51:26.034Z,69.4
2017-08-07T06:51:51.583Z,69.97
2017-08-07T06:52:17.026Z,69.87
2017-08-07T06:52:42.500Z,69.68
2017-08-07T06:53:07.947Z,70.07
2017-08-07T06:53:33.418Z,70.36
2017-08-07T06:53:58.864Z,70.36
2017-08-07T06:54:24.336Z,70.17
2017-08-07T06:54:49.813Z,70.26
2017-08-07T06:55:15.298Z,70.36
2017-08-07T06:55:40.789Z,70.26
2017-08-07T06:56:06.279Z,70.36
2017-08-07T06:56:31.810Z,69.97
2017-08-07T06:56:57.249Z,70.45
2017-08-07T06:57:22.716Z,70.36
2017-08-07T06:57:48.182Z,70.64
2017-08-07T06:58:13.668Z,70.26
2017-08-07T06:58:39.137Z,70.26
2017-08-07T06:59:04.626Z,69.97
2017-08-07T06:59:30.165Z,70.26
2017-08-07T06:59:55.628Z,70.36
2017-08-07T07:00:21.110Z,70.36
2017-08-07T07:00:46.550Z,69.87
2017-08-07T07:01:12.057Z,70.01
2017-08-07T07:01:37.555Z,70.58
2017-08-07T07:02:03.060Z,70.68
2017-08-07T07:02:28.517Z,70.1
2017-08-07T07:02:53.995Z,70.39
2017-08-07T07:03:19.506Z,70.1
2017-08-07T07:03:44.966Z,70.2
2017-08-07T07:04:10.418Z,70.39
2017-08-07T07:04:35.892Z,70.2
2017-08-07T07:05:01.353Z,70.29
2017-08-07T07:05:26.828Z,70.2
2017-08-07T07:05:52.286Z,70.1
2017-08-07T07:06:17.731Z,70.01
2017-08-07T07:06:43.221Z,69.91
2017-08-07T07:07:08.676Z,70.01
2017-08-07T07:07:34.184Z,70.29
2017-08-07T07:07:59.649Z,69.91
2017-08-07T07:09:13.486Z,69.81
2017-08-07T07:09:38.961Z,69.53
2017-08-07T07:10:04.441Z,69.24
2017-08-07T07:10:29.886Z,69.24
2017-08-07T07:10:55.380Z,69.05
2017-08-07T07:11:20.912Z,69.24
2017-08-07T07:11:46.384Z,69.24
2017-08-07T07:12:11.875Z,69.43
2017-08-07T07:12:37.377Z,69.43
2017-08-07T07:13:02.838Z,69.05
2017-08-07T07:13:28.321Z,69.14
2017-08-07T07:13:53.786Z,68.95
2017-08-07T07:14:19.342Z,69.24
2017-08-07T07:14:44.761Z,69.24
2017-08-07T07:15:10.269Z,69.05
2017-08-07T07:15:35.729Z,69.43
2017-08-07T07:16:01.219Z,68.95
2017-08-07T07:16:26.664Z,69.43
2017-08-07T07:16:52.108Z,68.95
2017-08-07T07:17:17.600Z,68.47
2017-08-07T07:17:43.073Z,68.08
2017-08-07T07:18:08.580Z,68.57
2017-08-07T07:18:33.987Z,69.24
2017-08-07T07:18:59.435Z,68.28
2017-08-07T07:19:24.891Z,67.99
2017-08-07T07:19:50.328Z,67.93
2017-08-07T07:20:15.787Z,67.9
2017-08-07T07:20:41.280Z,68.18
2017-08-07T07:21:06.755Z,68.37
2017-08-07T07:21:32.235Z,68.85
2017-08-07T07:21:57.745Z,68.98
2017-08-07T07:22:23.207Z,68.98
2017-08-07T07:22:48.704Z,68.79
2017-08-07T07:23:14.143Z,68.79
2017-08-07T07:23:39.568Z,69.18
2017-08-07T07:24:05.011Z,68.41
2017-08-07T07:24:30.545Z,68.44
2017-08-07T07:24:55.973Z,67.93
2017-08-07T07:25:21.434Z,68.02
2017-08-07T07:25:46.911Z,67.35
2017-08-07T07:26:12.390Z,67.07
2017-08-07T07:26:37.953Z,66.49
2017-08-07T07:27:03.422Z,66.81
2017-08-07T07:27:28.892Z,67.07
2017-08-07T07:27:54.337Z,66.61
2017-08-07T07:28:19.818Z,66.61
2017-08-07T07:28:45.312Z,66.52
2017-08-07T07:29:10.781Z,66.97
2017-08-07T07:29:36.287Z,67.19
2017-08-07T07:30:01.775Z,67.1
2017-08-07T07:30:27.235Z,67.1
2017-08-07T07:30:52.706Z,67.58
2017-08-07T07:31:18.141Z,67.19
2017-08-07T07:31:43.609Z,66.61
2017-08-07T07:32:09.123Z,66.71
2017-08-07T07:32:34.634Z,66.61
2017-08-07T07:33:00.097Z,66.23
2017-08-07T07:33:25.549Z,65.75
2017-08-07T07:33:51.042Z,65.56
2017-08-07T07:34:16.513Z,65.84
2017-08-07T07:34:41.998Z,65.75
2017-08-07T07:35:07.412Z,63.92
2017-08-07T07:35:32.916Z,64.02
2017-08-07T07:35:58.398Z,63.83
2017-08-07T07:36:23.845Z,64.5
2017-08-07T07:36:49.300Z,65.08
2017-08-07T07:37:14.749Z,64.89
2017-08-07T07:37:40.221Z,64.89
2017-08-07T07:38:05.669Z,64.79
2017-08-07T07:38:31.171Z,64.69
2017-08-07T07:38:56.613Z,64.69
2017-08-07T07:39:22.059Z,65.27
2017-08-07T07:39:47.517Z,64.6
2017-08-07T07:40:13.014Z,64.73
2017-08-07T07:40:38.426Z,64.69
2017-08-07T07:41:03.880Z,64.69
2017-08-07T07:41:29.383Z,64.69
2017-08-07T07:41:54.845Z,64.6
2017-08-07T07:42:20.271Z,64.79
2017-08-07T07:42:45.739Z,64.98
2017-08-07T07:43:11.209Z,64.92
2017-08-07T07:43:36.617Z,65.3
2017-08-07T07:44:02.052Z,65.01
2017-08-07T07:44:27.531Z,64.98
2017-08-07T07:44:53.016Z,64.92
2017-08-07T07:45:18.466Z,65.11
2017-08-07T07:45:43.966Z,64.82
2017-08-07T07:46:09.499Z,65.2
2017-08-07T07:46:35.098Z,65.3
2017-08-07T07:47:00.509Z,65.3
2017-08-07T07:47:25.982Z,65.01
2017-08-07T07:47:51.458Z,65.01
2017-08-07T07:48:16.956Z,64.92
2017-08-07T07:48:42.374Z,64.63
2017-08-07T07:49:07.887Z,64.82
2017-08-07T07:49:33.271Z,64.53
2017-08-07T07:49:58.714Z,65.01
2017-08-07T07:50:24.266Z,64.63
2017-08-07T07:50:49.697Z,65.01
2017-08-07T07:51:15.168Z,65.01
2017-08-07T07:51:40.629Z,64.82
2017-08-07T07:52:06.101Z,64.92
2017-08-07T07:52:31.558Z,64.73
2017-08-07T07:52:57.045Z,64.92
2017-08-07T07:53:22.489Z,64.95
2017-08-07T07:54:20.982Z,64.95
2017-08-07T07:54:46.489Z,64.76
2017-08-07T07:55:11.925Z,64.66
2017-08-07T07:55:37.393Z,64.66
2017-08-07T07:56:02.809Z,64.66
2017-08-07T07:56:28.331Z,64.95
2017-08-07T07:56:53.820Z,64.95
2017-08-07T07:57:19.284Z,65.14
2017-08-07T07:57:44.714Z,64.56
2017-08-07T07:58:10.172Z,63.6
2017-08-07T07:58:35.639Z,63.22
2017-08-07T07:59:01.102Z,63.25
2017-08-07T07:59:26.582Z,63.25
2017-08-07T07:59:52.030Z,63.44
2017-08-07T08:00:17.508Z,63.73
2017-08-07T08:00:42.968Z,63.15
2017-08-07T08:01:08.412Z,62.87
2017-08-07T08:01:33.874Z,62.96
2017-08-07T08:01:59.370Z,62.87
2017-08-07T08:02:24.817Z,63.44
2017-08-07T08:02:50.274Z,63.25
2017-08-07T08:03:15.704Z,63.73
2017-08-07T08:03:41.145Z,63.34
2017-08-07T08:04:06.670Z,63.54
2017-08-07T08:04:32.125Z,63.54
2017-08-07T08:04:57.598Z,63.38
2017-08-07T08:05:23.053Z,63.18
2017-08-07T08:05:48.538Z,63.06
2017-08-07T08:06:14.035Z,62.7
2017-08-07T08:06:39.517Z,62.8
2017-08-07T08:07:05.019Z,62.51
2017-08-07T08:07:30.461Z,62.32
2017-08-07T08:07:55.865Z,62.12
2017-08-07T08:08:21.296Z,62.32
2017-08-07T08:08:46.780Z,63.09
2017-08-07T08:09:12.235Z,62.8
2017-08-07T08:09:37.679Z,62.9
2017-08-07T08:10:03.138Z,63.09
2017-08-07T08:10:28.605Z,62.99
2017-08-07T08:10:54.073Z,63.18
2017-08-07T08:11:19.507Z,63.18
2017-08-07T08:11:44.977Z,62.9
2017-08-07T08:12:10.483Z,62.51
2017-08-07T08:12:35.985Z,62.25
2017-08-07T08:13:01.415Z,62.45
2017-08-07T08:13:26.870Z,62.06
2017-08-07T08:13:52.338Z,61.96
2017-08-07T08:14:17.782Z,62.15
2017-08-07T08:14:43.388Z,62.35
2017-08-07T08:15:08.843Z,62.45
2017-08-07T08:15:34.275Z,62.15
2017-08-07T08:15:59.765Z,61.96
2017-08-07T08:16:25.264Z,62.06
2017-08-07T08:16:50.716Z,60.9
2017-08-07T08:17:16.186Z,61.29
2017-08-07T08:17:41.672Z,61.48
2017-08-07T08:18:07.143Z,61.58
2017-08-07T08:18:32.671Z,60.9
2017-08-07T08:18:58.134Z,61.1
2017-08-07T08:19:23.619Z,60.9
2017-08-07T08:19:49.013Z,61.29
2017-08-07T08:20:14.520Z,61.32
2017-08-07T08:20:39.929Z,61.13
2017-08-07T08:21:05.398Z,60.8
2017-08-07T08:21:30.904Z,61.71
2017-08-07T08:21:56.406Z,61.51
2017-08-07T08:22:21.831Z,61.41
2017-08-07T08:22:47.257Z,61.22
2017-08-07T08:23:12.711Z,61.41
2017-08-07T08:23:38.219Z,61.03
2017-08-07T08:24:03.925Z,61.13
2017-08-07T08:24:29.315Z,60.93
2017-08-07T08:24:54.788Z,60.83
2017-08-07T08:25:20.218Z,60.06
2017-08-07T08:25:45.670Z,59.97
2017-08-07T08:26:11.128Z,59.87
2017-08-07T08:26:36.586Z,59.87
2017-08-07T08:27:02.033Z,59.78
2017-08-07T08:27:27.518Z,59.1
2017-08-07T08:27:53.029Z,58.81
2017-08-07T08:28:18.495Z,58.33
2017-08-07T08:28:43.963Z,58.81
2017-08-07T08:29:09.457Z,58.62
2017-08-07T08:29:34.909Z,58.62
2017-08-07T08:30:00.346Z,58.65
2017-08-07T08:30:25.777Z,58.75
2017-08-07T08:30:51.206Z,58.81
2017-08-07T08:31:16.661Z,58.81
2017-08-07T08:31:42.121Z,58.52
2017-08-07T08:32:07.557Z,58.17
2017-08-07T08:32:33.049Z,58.33
2017-08-07T08:32:58.497Z,57.87
2017-08-07T08:33:51.938Z,58.17
2017-08-07T08:34:17.397Z,58.45
2017-08-07T08:34:42.877Z,58.07
2017-08-07T08:35:08.318Z,58.17
2017-08-07T08:35:33.804Z,57.68
2017-08-07T08:35:59.230Z,58.26
2017-08-07T08:36:24.747Z,58.26
2017-08-07T08:36:50.201Z,58.55
2017-08-07T08:37:15.624Z,58.65
2017-08-07T08:37:41.086Z,58.26
2017-08-07T08:38:06.546Z,58.65
2017-08-07T08:38:31.990Z,58.65
2017-08-07T08:38:57.431Z,58.65
2017-08-07T08:39:22.874Z,58.75
2017-08-07T08:39:48.332Z,58.84
2017-08-07T08:40:13.836Z,59.13
2017-08-07T08:40:39.267Z,59.03
2017-08-07T08:41:04.720Z,59.42
2017-08-07T08:41:30.154Z,59.03
2017-08-07T08:41:55.594Z,59.03
2017-08-07T08:42:21.038Z,58.65
2017-08-07T08:42:46.524Z,58.65
2017-08-07T08:43:11.984Z,58.45
2017-08-07T08:43:37.459Z,58.26
2017-08-07T08:44:02.979Z,58.07
2017-08-07T08:44:28.418Z,57.29
2017-08-07T08:44:53.845Z,57.49
2017-08-07T08:45:19.388Z,56.62
2017-08-07T08:45:44.781Z,55.85
2017-08-07T08:46:10.260Z,54.98
2017-08-07T08:46:35.729Z,55.08
2017-08-07T08:47:01.220Z,55.4
2017-08-07T08:47:26.756Z,55.4
2017-08-07T08:47:52.237Z,55.01
2017-08-07T08:48:17.720Z,55.3
2017-08-07T08:48:43.205Z,55.49
2017-08-07T08:49:08.713Z,55.4
2017-08-07T08:49:34.166Z,55.4
2017-08-07T08:49:59.642Z,56.26
2017-08-07T08:50:25.128Z,55.88
2017-08-07T08:50:50.634Z,56.36
2017-08-07T08:51:16.161Z,56.36
2017-08-07T08:51:41.640Z,55.59
2017-08-07T08:52:07.133Z,55.59
2017-08-07T08:52:32.617Z,55.68
2017-08-07T08:52:58.139Z,55.88
2017-08-07T08:53:23.603Z,55.88
2017-08-07T08:53:49.193Z,55.49
2017-08-07T08:54:14.597Z,56.36
2017-08-07T08:54:40.086Z,55.4
2017-08-07T08:55:05.511Z,55.33
2017-08-07T08:55:30.977Z,55.04
2017-08-07T08:55:56.466Z,54.65
2017-08-07T08:56:21.940Z,55.1
2017-08-07T08:56:47.524Z,55.59
2017-08-07T08:57:12.936Z,55.33
2017-08-07T08:57:38.397Z,55.52
2017-08-07T08:58:03.907Z,55.2
2017-08-07T08:58:29.402Z,55.04
2017-08-07T08:58:54.944Z,54.91
2017-08-07T08:59:20.577Z,54.75
2017-08-07T08:59:46.011Z,55.04
2017-08-07T09:00:11.555Z,54.84
2017-08-07T09:00:37.069Z,54.84
2017-08-07T09:01:02.549Z,53.88
2017-08-07T09:01:28.037Z,54.07
2017-08-07T09:01:53.541Z,54.07
2017-08-07T09:02:19.072Z,53.97
2017-08-07T09:02:44.559Z,54.27
2017-08-07T09:03:09.998Z,54.27
2017-08-07T09:03:35.497Z,54.27
2017-08-07T09:04:00.987Z,53.97
2017-08-07T09:04:26.445Z,53.88
2017-08-07T09:04:51.912Z,54.07
2017-08-07T09:05:17.378Z,53.97
2017-08-07T09:05:42.900Z,54.07
2017-08-07T09:06:08.363Z,54
2017-08-07T09:06:33.877Z,53.91
2017-08-07T09:06:59.365Z,53.91
2017-08-07T09:07:24.796Z,54
2017-08-07T09:07:50.277Z,54.29
2017-08-07T09:08:15.768Z,54.1
2017-08-07T09:08:41.220Z,53.91
2017-08-07T09:09:06.710Z,53.81
2017-08-07T09:09:32.186Z,52.94
2017-08-07T09:09:57.700Z,53.42
2017-08-07T09:10:23.170Z,53.42
2017-08-07T09:10:48.791Z,52.94
2017-08-07T09:11:14.240Z,52.94
2017-08-07T09:11:39.781Z,53.03
2017-08-07T09:12:05.245Z,53.13
2017-08-07T09:12:30.759Z,53.33
2017-08-07T09:12:56.255Z,53.03
2017-08-07T09:13:21.720Z,52.17
2017-08-07T09:13:47.196Z,51.68
2017-08-07T09:14:12.807Z,51.2
2017-08-07T09:14:38.278Z,51.49
2017-08-07T09:15:03.746Z,51.39
2017-08-07T09:15:29.221Z,50.91
2017-08-07T09:15:54.772Z,50.33
2017-08-07T09:16:20.270Z,50.33
2017-08-07T09:16:45.788Z,50.52
2017-08-07T09:17:11.251Z,49.17
2017-08-07T09:17:36.755Z,49.46
2017-08-07T09:18:02.214Z,49.27
2017-08-07T09:18:27.693Z,50.33
2017-08-07T09:18:53.174Z,49.85
2017-08-07T09:19:18.620Z,49.85
2017-08-07T09:19:44.072Z,50.04
2017-08-07T09:20:09.548Z,50.43
2017-08-07T09:20:35.050Z,50.23
2017-08-07T09:21:00.537Z,49.95
2017-08-07T09:21:26.030Z,50.04
2017-08-07T09:21:51.475Z,49.37
2017-08-07T09:22:16.945Z,49.27
2017-08-07T09:22:42.415Z,49.17
2017-08-07T09:23:07.875Z,49.27
2017-08-07T09:23:33.394Z,49.27
2017-08-07T09:23:58.847Z,49.27
2017-08-07T09:24:24.342Z,49.19
2017-08-07T09:24:49.872Z,49.07
2017-08-07T09:25:15.331Z,49.17
2017-08-07T09:25:40.855Z,48.88
2017-08-07T09:26:06.313Z,49
2017-08-07T09:26:31.788Z,48.61
2017-08-07T09:26:57.290Z,48.49
2017-08-07T09:27:22.795Z,48.3
2017-08-07T09:27:48.272Z,47.55
2017-08-07T09:28:13.789Z,47.55
2017-08-07T09:28:39.252Z,48.21
2017-08-07T09:29:04.704Z,48.59
2017-08-07T09:29:30.176Z,48.52
2017-08-07T09:29:55.636Z,48.52
2017-08-07T09:30:21.113Z,48.61
2017-08-07T09:30:46.606Z,48.13
2017-08-07T09:31:12.120Z,48.32
2017-08-07T09:31:37.604Z,48.23
2017-08-07T09:32:03.053Z,47.74
2017-08-07T09:32:28.570Z,48.03
2017-08-07T09:32:54.055Z,48.03
2017-08-07T09:34:07.847Z,48.32
2017-08-07T09:34:33.333Z,48.23
2017-08-07T09:34:58.814Z,47.45
2017-08-07T09:35:24.305Z,48.23
2017-08-07T09:35:49.796Z,48.13
2017-08-07T09:36:15.215Z,48.16
2017-08-07T09:36:40.735Z,48.03
2017-08-07T09:37:06.224Z,47.86
2017-08-07T09:37:31.679Z,48.13
2017-08-07T09:37:57.190Z,48.06
2017-08-07T09:38:22.674Z,47.86
2017-08-07T09:38:48.161Z,47.86
2017-08-07T09:39:13.681Z,47.96
2017-08-07T09:39:39.153Z,48.06
2017-08-07T09:40:04.649Z,47.86
2017-08-07T09:40:30.098Z,48.06
2017-08-07T09:40:55.582Z,47.96
2017-08-07T09:41:21.041Z,48.16
2017-08-07T09:42:14.466Z,47.58
2017-08-07T09:42:39.937Z,47.48
2017-08-07T09:43:05.413Z,48.06
2017-08-07T09:43:30.873Z,47.96
2017-08-07T09:43:56.362Z,48.35
2017-08-07T09:44:21.810Z,49.22
2017-08-07T09:44:47.315Z,48.93
2017-08-07T09:45:12.798Z,48.25
2017-08-07T09:45:38.351Z,48.54
2017-08-07T09:46:03.855Z,48.35
2017-08-07T09:46:29.352Z,48.06
2017-08-07T09:46:54.836Z,47.6
2017-08-07T09:47:20.316Z,47.48
2017-08-07T09:47:45.797Z,47.77
2017-08-07T09:48:11.442Z,47
2017-08-07T09:48:36.909Z,47.02
2017-08-07T09:49:02.363Z,46.25
2017-08-07T09:49:27.887Z,45.66
2017-08-07T09:49:53.320Z,45.66
2017-08-07T09:50:18.756Z,44.89
2017-08-07T09:50:44.262Z,44.7
2017-08-07T09:51:09.712Z,45.08
2017-08-07T09:51:35.196Z,44.98
2017-08-07T09:52:00.661Z,44.98
2017-08-07T09:52:26.118Z,44.89
2017-08-07T09:52:51.587Z,45.08
2017-08-07T09:53:17.104Z,44.89
2017-08-07T09:53:42.563Z,45.06
2017-08-07T09:54:08.044Z,44.87
2017-08-07T09:54:33.536Z,44.77
2017-08-07T09:54:58.964Z,44.77
2017-08-07T09:55:24.458Z,45.06
2017-08-07T09:55:49.896Z,44.48
2017-08-07T09:56:15.407Z,44.67
2017-08-07T09:56:40.865Z,44.57
2017-08-07T09:57:06.339Z,44.77
2017-08-07T09:57:31.841Z,44.77
2017-08-07T09:57:57.301Z,45.06
2017-08-07T09:58:22.799Z,44.87
2017-08-07T09:58:48.266Z,44.96
2017-08-07T09:59:13.736Z,45.54
2017-08-07T09:59:39.235Z,45.54
2017-08-07T10:00:04.730Z,45.64
2017-08-07T10:00:30.175Z,45.16
2017-08-07T10:00:55.651Z,44.67
2017-08-07T10:01:21.143Z,44.84
2017-08-07T10:01:46.632Z,44.48
2017-08-07T10:02:12.105Z,44.67
2017-08-07T10:02:37.570Z,44.48
2017-08-07T10:03:03.050Z,44.57
2017-08-07T10:03:28.558Z,44.17
2017-08-07T10:03:54.036Z,44.38
2017-08-07T10:04:19.480Z,44.26
2017-08-07T10:04:44.938Z,44.75
2017-08-07T10:05:10.400Z,44.65
2017-08-07T10:05:35.850Z,45.04
2017-08-07T10:06:01.327Z,45.62
2017-08-07T10:06:26.865Z,45.62
2017-08-07T10:06:52.344Z,45.62
2017-08-07T10:07:17.796Z,45.74
2017-08-07T10:07:43.270Z,45.72
2017-08-07T10:08:08.740Z,45.42
2017-08-07T10:08:34.206Z,45.04
2017-08-07T10:08:59.722Z,45.06
2017-08-07T10:09:25.169Z,45.06
2017-08-07T10:09:50.645Z,45.16
2017-08-07T10:10:16.143Z,44.29
2017-08-07T10:10:41.617Z,44.29
2017-08-07T10:11:07.074Z,43.51
2017-08-07T10:11:32.529Z,42.93
2017-08-07T10:11:57.989Z,43.8
2017-08-07T10:12:23.458Z,43.32
2017-08-07T10:12:48.904Z,43.51
2017-08-07T10:13:14.376Z,43.9
2017-08-07T10:13:39.845Z,43.9
2017-08-07T10:14:05.319Z,44.19
2017-08-07T10:14:30.789Z,44.29
2017-08-07T10:14:56.267Z,43.9
2017-08-07T10:15:21.713Z,43.61
2017-08-07T10:15:47.201Z,43.51
2017-08-07T10:16:12.679Z,43.41
2017-08-07T10:16:38.208Z,43.61
2017-08-07T10:17:03.659Z,43.41
2017-08-07T10:17:29.123Z,43.61
2017-08-07T10:17:54.621Z,43.32
2017-08-07T10:18:20.119Z,43.61
2017-08-07T10:18:45.566Z,43.32
2017-08-07T10:19:11.022Z,43.8
2017-08-07T10:19:36.491Z,43.8
2017-08-07T10:20:01.961Z,43.51
2017-08-07T10:20:27.416Z,44.19
2017-08-07T10:20:52.885Z,44.09
2017-08-07T10:21:18.346Z,44.57
2017-08-07T10:21:43.810Z,44.77
2017-08-07T10:22:09.266Z,45.06
2017-08-07T10:22:34.770Z,45.74
2017-08-07T10:23:00.211Z,45.83
2017-08-07T10:23:25.658Z,45.83
2017-08-07T10:23:51.130Z,46.05
2017-08-07T10:24:16.609Z,45.57
2017-08-07T10:24:42.110Z,45.86
2017-08-07T10:25:07.566Z,45.37
2017-08-07T10:25:33.033Z,44.5
2017-08-07T10:25:58.470Z,44.12
2017-08-07T10:26:23.958Z,43.92
2017-08-07T10:26:49.409Z,43.46
2017-08-07T10:27:14.873Z,42.88
2017-08-07T10:27:40.330Z,42.78
2017-08-07T10:28:05.813Z,43.07
2017-08-07T10:28:31.260Z,42.88
2017-08-07T10:28:56.744Z,42.32
2017-08-07T10:29:22.236Z,41.93
2017-08-07T10:29:47.720Z,41.83
2017-08-07T10:30:13.235Z,41.64
2017-08-07T10:30:38.682Z,41.64
2017-08-07T10:31:04.148Z,41.74
2017-08-07T10:31:29.610Z,41.93
2017-08-07T10:31:55.051Z,42.22
2017-08-07T10:32:20.503Z,42.61
2017-08-07T10:32:45.980Z,42.41
2017-08-07T10:33:11.473Z,42.22
2017-08-07T10:33:36.973Z,41.74
2017-08-07T10:34:02.439Z,41.83
2017-08-07T10:34:27.881Z,41.45
2017-08-07T10:34:53.416Z,41.06
2017-08-07T10:35:18.900Z,41.55
2017-08-07T10:35:44.370Z,40.96
2017-08-07T10:36:09.881Z,40.96
2017-08-07T10:36:35.368Z,41.16
2017-08-07T10:37:00.845Z,41.64
2017-08-07T10:37:26.335Z,41.64
2017-08-07T10:37:51.787Z,41.83
2017-08-07T10:38:17.252Z,41.82
2017-08-07T10:38:42.761Z,41.91
2017-08-07T10:39:08.257Z,41.91
2017-08-07T10:39:33.770Z,42
2017-08-07T10:39:59.267Z,42.1
2017-08-07T10:40:24.756Z,42.2
2017-08-07T10:40:50.210Z,42
2017-08-07T10:41:15.660Z,42.49
2017-08-07T10:41:41.156Z,42.88
2017-08-07T10:42:06.627Z,42.78
2017-08-07T10:42:32.121Z,42.78
2017-08-07T10:42:57.612Z,42.88
2017-08-07T10:43:23.119Z,43.07
2017-08-07T10:43:48.628Z,43.07
2017-08-07T10:44:14.068Z,43.07
2017-08-07T10:44:39.541Z,43.07
2017-08-07T10:45:05.137Z,42.97
2017-08-07T10:45:30.681Z,43.07
2017-08-07T10:45:56.145Z,42.88
2017-08-07T10:46:21.619Z,42.59
2017-08-07T10:46:47.064Z,42.78
2017-08-07T10:47:12.543Z,42.78
2017-08-07T10:47:38.006Z,43.07
2017-08-07T10:48:03.471Z,42.78
2017-08-07T10:48:28.925Z,42.68
2017-08-07T10:48:54.404Z,42.59
2017-08-07T10:49:19.869Z,42.59
2017-08-07T10:49:45.412Z,42.49
2017-08-07T10:50:10.889Z,42.2
2017-08-07T10:50:36.407Z,42.1
2017-08-07T10:51:01.892Z,42.3
2017-08-07T10:51:27.389Z,40.94
2017-08-07T10:51:52.848Z,40.36
2017-08-07T10:52:18.356Z,40.94
2017-08-07T10:52:43.821Z,40.94
2017-08-07T10:53:09.292Z,40.84
2017-08-07T10:53:34.743Z,41.14
2017-08-07T10:54:00.204Z,40.84
2017-08-07T10:54:25.704Z,41.14
2017-08-07T10:54:51.177Z,41.14
2017-08-07T10:55:16.671Z,40.94
2017-08-07T10:55:42.096Z,40.94
2017-08-07T10:56:07.564Z,40.73
2017-08-07T10:56:33.081Z,40.92
2017-08-07T10:56:58.579Z,41.41
2017-08-07T10:57:24.049Z,41.5
2017-08-07T10:57:49.541Z,41.41
2017-08-07T10:58:15.024Z,41.7
2017-08-07T10:58:40.494Z,41.5
2017-08-07T10:59:05.970Z,41.79
2017-08-07T10:59:31.465Z,41.5
2017-08-07T10:59:56.937Z,42.18
2017-08-07T11:00:22.406Z,42.18
2017-08-07T11:00:47.912Z,42.47
2017-08-07T11:01:13.413Z,42.86
2017-08-07T11:01:38.905Z,42.76
2017-08-07T11:02:04.361Z,43.24
2017-08-07T11:02:29.799Z,43.05
2017-08-07T11:02:55.313Z,42.4
2017-08-07T11:03:20.796Z,41.52
2017-08-07T11:03:46.231Z,41.82
2017-08-07T11:04:11.800Z,41.72
2017-08-07T11:04:37.320Z,41.52